Time;durP1;ratioP1;P1;durP2;ratioP2;P2;SDS_P1;SDS_P2;PMS_P1;PMS_P2;Temp;Humidity;BMP_temperature;BMP_pressure;BME280_temperature;BME280_humidity;BME280_pressure;Samples;Min_cycle;Max_cycle;Signal;HPM_P1;HPM_P2
2021/12/15 00:00:02;;;;;;;1449.00;363.07;;;2.50;99.90;;;;;;10371385;28;20046;-88
2021/12/15 00:05:05;;;;;;;1174.90;337.40;;;2.40;99.90;;;;;;10371654;28;20097;-87
2021/12/15 00:10:06;;;;;;;783.27;283.53;;;2.40;99.90;;;;;;10370638;28;20037;-88
2021/12/15 00:15:08;;;;;;;1420.40;375.23;;;2.40;99.90;;;;;;10369373;28;20052;-90
2021/12/15 00:20:12;;;;;;;1367.10;372.47;;;2.40;99.90;;;;;;10370829;28;20061;-89
2021/12/15 00:25:14;;;;;;;1097.57;303.23;;;2.40;99.90;;;;;;10353182;28;20117;-88
2021/12/15 00:30:15;;;;;;;1177.63;389.37;;;2.40;99.90;;;;;;10352191;28;20037;-88
2021/12/15 00:35:16;;;;;;;1542.97;394.77;;;2.40;99.90;;;;;;10370465;28;20107;-88
2021/12/15 00:40:19;;;;;;;1035.80;299.37;;;2.40;99.90;;;;;;10353004;28;20457;-88
2021/12/15 00:45:20;;;;;;;797.57;290.67;;;2.40;99.90;;;;;;10370319;28;20029;-89
2021/12/15 00:50:29;;;;;;;684.30;223.97;;;2.40;99.90;;;;;;10368656;28;20030;-88
2021/12/15 00:55:30;;;;;;;975.90;265.80;;;2.40;99.90;;;;;;10370234;28;20061;-89
2021/12/15 01:00:40;;;;;;;1190.40;281.33;;;2.40;99.90;;;;;;10369324;28;20060;-89
2021/12/15 01:05:44;;;;;;;867.93;244.57;;;2.40;99.90;;;;;;10370516;28;20490;-89
2021/12/15 01:21:16;;;;;;;1136.90;327.53;;;2.40;99.90;;;;;;10356273;28;20045;-89
2021/12/15 01:26:17;;;;;;;1216.53;319.60;;;2.30;99.90;;;;;;10320158;28;20034;-89
2021/12/15 01:31:18;;;;;;;822.70;249.50;;;2.40;99.90;;;;;;10320443;28;20036;-90
2021/12/15 01:36:19;;;;;;;816.33;245.87;;;2.30;99.90;;;;;;10346855;28;20018;-88
2021/12/15 01:41:22;;;;;;;788.90;245.13;;;2.30;99.90;;;;;;10310714;28;20067;-89
2021/12/15 01:51:44;;;;;;;808.33;247.00;;;2.30;99.90;;;;;;10328051;28;20121;-89
2021/12/15 01:56:45;;;;;;;902.87;269.20;;;2.40;99.90;;;;;;10310132;28;20026;-89
2021/12/15 02:01:47;;;;;;;1231.77;295.80;;;2.30;99.90;;;;;;10311904;28;20034;-90
2021/12/15 02:06:49;;;;;;;811.27;250.80;;;2.40;99.90;;;;;;10347114;28;20073;-89
2021/12/15 02:11:50;;;;;;;579.73;189.27;;;2.40;99.90;;;;;;10367412;28;20030;-89
2021/12/15 02:16:50;;;;;;;963.23;239.53;;;2.30;99.90;;;;;;10365896;28;20480;-89
2021/12/15 02:21:53;;;;;;;624.53;205.57;;;2.30;99.90;;;;;;10367990;28;20029;-90
2021/12/15 02:26:58;;;;;;;495.73;162.37;;;2.30;99.90;;;;;;10367335;28;20102;-89
2021/12/15 02:37:19;;;;;;;877.60;235.67;;;2.30;99.90;;;;;;10367563;28;20022;-89
2021/12/15 02:42:22;;;;;;;1027.97;272.33;;;2.40;99.90;;;;;;10366001;28;20793;-89
2021/12/15 02:47:28;;;;;;;475.13;157.30;;;2.30;99.90;;;;;;10366291;28;20028;-89
2021/12/15 02:52:28;;;;;;;692.90;209.30;;;2.30;99.90;;;;;;10365582;28;20057;-89
2021/12/15 02:57:29;;;;;;;634.10;197.47;;;2.30;99.90;;;;;;10373315;28;20025;-89
2021/12/15 03:07:44;;;;;;;524.27;174.73;;;2.30;99.90;;;;;;10373973;28;20504;-88
2021/12/15 03:18:18;;;;;;;614.80;187.87;;;2.30;99.90;;;;;;10373822;28;20061;-89
2021/12/15 03:23:28;;;;;;;807.47;202.60;;;2.30;99.90;;;;;;10359605;28;20073;-89
2021/12/15 03:38:58;;;;;;;530.33;167.77;;;2.30;99.90;;;;;;10372900;28;20022;-89
2021/12/15 03:44:00;;;;;;;678.80;210.27;;;2.30;99.90;;;;;;10372586;28;20044;-89
2021/12/15 03:49:02;;;;;;;599.80;163.87;;;2.40;99.90;;;;;;10372302;28;20038;-89
2021/12/15 03:54:05;;;;;;;629.03;187.83;;;2.40;99.90;;;;;;10355232;28;20113;-89
2021/12/15 03:59:06;;;;;;;449.63;155.73;;;2.40;99.90;;;;;;10372445;28;20053;-89
2021/12/15 04:04:23;;;;;;;294.03;117.30;;;2.40;99.90;;;;;;10368909;28;20029;-90
2021/12/15 04:09:27;;;;;;;388.37;131.53;;;2.40;99.90;;;;;;10370925;28;20096;-93
2021/12/15 04:14:41;;;;;;;348.17;127.97;;;2.50;99.90;;;;;;10370864;28;20041;-90
2021/12/15 04:19:41;;;;;;;570.70;184.87;;;2.50;99.90;;;;;;10365511;28;20038;-88
2021/12/15 04:24:42;;;;;;;320.27;121.83;;;2.50;99.90;;;;;;10365426;28;20054;-88
2021/12/15 04:29:44;;;;;;;371.17;137.17;;;2.50;99.90;;;;;;10361054;28;20049;-89
2021/12/15 04:34:46;;;;;;;328.27;120.53;;;2.50;99.90;;;;;;10364780;28;20073;-89
2021/12/15 04:39:46;;;;;;;508.63;154.93;;;2.50;99.90;;;;;;10364623;28;20120;-88
2021/12/15 04:44:56;;;;;;;367.97;129.67;;;2.50;99.90;;;;;;10365022;28;20052;-92
2021/12/15 04:50:04;;;;;;;579.53;158.00;;;2.50;99.90;;;;;;10348532;28;20100;-91
2021/12/15 04:55:07;;;;;;;582.70;165.53;;;2.50;99.90;;;;;;10366632;28;20041;-88
2021/12/15 05:00:13;;;;;;;360.63;127.83;;;2.60;99.90;;;;;;10380638;28;20046;-89
2021/12/15 05:05:14;;;;;;;422.40;159.67;;;2.60;99.90;;;;;;10361536;28;20046;-90
2021/12/15 05:10:16;;;;;;;479.77;157.30;;;2.60;99.90;;;;;;10369817;28;20026;-87
2021/12/15 05:15:19;;;;;;;432.40;151.77;;;2.60;99.90;;;;;;10361815;28;20034;-90
2021/12/15 05:20:22;;;;;;;792.40;209.13;;;2.60;99.90;;;;;;10361969;28;20028;-89
2021/12/15 05:25:23;;;;;;;681.10;195.67;;;2.50;99.90;;;;;;10367255;28;20033;-91
2021/12/15 05:30:24;;;;;;;632.83;204.33;;;2.50;99.90;;;;;;10348921;28;20049;-88
2021/12/15 05:35:25;;;;;;;565.57;183.07;;;2.50;99.90;;;;;;10347967;28;20025;-89
2021/12/15 05:40:27;;;;;;;967.80;226.73;;;2.50;99.90;;;;;;10350686;28;20107;-88
2021/12/15 05:45:31;;;;;;;559.53;173.30;;;2.50;99.90;;;;;;10348678;28;20033;-88
2021/12/15 05:50:32;;;;;;;652.77;186.03;;;2.60;99.90;;;;;;10365820;28;20021;-88
2021/12/15 05:55:34;;;;;;;625.43;168.00;;;2.60;99.90;;;;;;10365162;28;20022;-88
2021/12/15 06:00:39;;;;;;;627.90;171.77;;;2.60;99.90;;;;;;10349157;28;20030;-89
2021/12/15 06:05:40;;;;;;;640.80;171.33;;;2.60;99.90;;;;;;10368612;28;20046;-88
2021/12/15 06:10:41;;;;;;;697.03;190.17;;;2.70;99.90;;;;;;10350072;28;20033;-89
2021/12/15 06:15:44;;;;;;;645.57;176.70;;;2.70;99.90;;;;;;10366600;28;20030;-89
2021/12/15 06:20:47;;;;;;;794.70;199.20;;;2.60;99.90;;;;;;10367646;28;20041;-90
2021/12/15 06:26:00;;;;;;;689.00;175.43;;;2.60;99.90;;;;;;10348553;28;20030;-89
2021/12/15 06:31:01;;;;;;;671.00;172.33;;;2.60;99.90;;;;;;10368644;28;20029;-88
2021/12/15 06:36:04;;;;;;;666.50;199.73;;;2.60;99.90;;;;;;10375618;28;20099;-89
2021/12/15 06:41:07;;;;;;;955.90;281.13;;;2.60;99.90;;;;;;10358561;28;20021;-88
2021/12/15 07:01:50;;;;;;;765.27;206.87;;;2.80;99.90;;;;;;10374608;28;20050;-89
2021/12/15 07:06:51;;;;;;;763.23;215.07;;;2.90;99.90;;;;;;10356503;28;20088;-88
2021/12/15 07:11:52;;;;;;;637.13;187.87;;;3.00;99.90;;;;;;10375175;28;20077;-89
2021/12/15 07:16:55;;;;;;;663.80;203.50;;;2.90;99.90;;;;;;10374643;28;20152;-89
2021/12/15 07:22:59;;;;;;;934.93;251.07;;;3.00;99.90;;;;;;10374318;28;20500;-89
2021/12/15 07:27:29;;;;;;;730.60;218.43;;;3.10;99.90;;;;;;10360702;28;20129;-88
2021/12/15 07:32:29;;;;;;;797.17;226.07;;;3.10;99.90;;;;;;10355737;28;20109;-89
2021/12/15 07:37:32;;;;;;;993.47;292.83;;;3.20;99.90;;;;;;10373788;28;20475;-88
2021/12/15 07:42:42;;;;;;;904.33;239.53;;;3.20;99.90;;;;;;10371691;28;20412;-90
2021/12/15 07:47:43;;;;;;;852.93;247.50;;;3.20;99.90;;;;;;10373641;28;20029;-89
2021/12/15 07:52:44;;;;;;;754.40;222.67;;;3.30;99.90;;;;;;10372658;28;20036;-89
2021/12/15 07:57:45;;;;;;;788.70;245.70;;;3.30;99.90;;;;;;10372558;28;20101;-90
2021/12/15 08:02:46;;;;;;;781.20;248.17;;;3.30;99.90;;;;;;10354585;28;20030;-88
2021/12/15 08:07:47;;;;;;;758.80;220.07;;;3.30;99.90;;;;;;10340067;28;20397;-89
2021/12/15 08:12:48;;;;;;;726.27;225.43;;;3.30;99.90;;;;;;10331957;28;20045;-89
2021/12/15 08:17:51;;;;;;;662.77;215.67;;;3.40;99.90;;;;;;10331106;28;20037;-89
2021/12/15 08:22:52;;;;;;;1102.87;304.47;;;3.40;99.90;;;;;;10332068;28;20026;-88
2021/12/15 08:27:54;;;;;;;837.70;237.33;;;3.50;99.90;;;;;;10329974;28;20038;-89
2021/12/15 08:32:57;;;;;;;814.23;219.97;;;3.50;99.90;;;;;;10329792;28;20378;-89
2021/12/15 08:37:58;;;;;;;772.83;202.10;;;3.50;99.90;;;;;;10329756;28;20026;-90
2021/12/15 08:43:00;;;;;;;783.73;241.07;;;3.50;99.90;;;;;;10330209;28;20052;-89
2021/12/15 08:48:01;;;;;;;784.37;244.50;;;3.60;99.90;;;;;;10329032;28;20718;-89
2021/12/15 08:53:05;;;;;;;746.03;227.43;;;3.70;99.90;;;;;;10330154;28;20018;-89
2021/12/15 08:58:07;;;;;;;767.30;210.87;;;3.80;99.90;;;;;;10328879;28;20026;-90
2021/12/15 09:03:08;;;;;;;868.77;241.50;;;3.80;99.90;;;;;;10312514;28;20034;-88
2021/12/15 09:08:10;;;;;;;639.83;188.00;;;3.90;99.90;;;;;;10329736;28;20437;-89
2021/12/15 09:13:11;;;;;;;907.63;257.10;;;3.90;99.90;;;;;;10329337;28;20480;-89
2021/12/15 09:18:13;;;;;;;688.33;202.27;;;4.00;99.90;;;;;;10327576;28;20064;-89
2021/12/15 09:23:16;;;;;;;729.00;208.80;;;4.00;99.90;;;;;;10328678;28;20046;-88
2021/12/15 09:28:19;;;;;;;849.30;222.43;;;4.00;99.90;;;;;;10327392;28;20363;-88
2021/12/15 09:33:25;;;;;;;1215.50;333.83;;;4.00;99.90;;;;;;10327895;28;20027;-89
2021/12/15 09:38:27;;;;;;;1132.70;336.33;;;4.10;99.90;;;;;;10327120;28;20485;-89
2021/12/15 09:43:30;;;;;;;1365.87;403.70;;;4.10;99.90;;;;;;10327943;28;20026;-88
2021/12/15 10:20:39;;;;;;;640.83;207.50;;;4.40;99.90;;;;;;10327490;28;20031;-89
2021/12/15 10:25:49;;;;;;;891.23;253.87;;;4.60;99.90;;;;;;10309776;28;20023;-89
2021/12/15 10:30:55;;;;;;;652.13;203.07;;;4.60;99.90;;;;;;10325910;28;20572;-90
2021/12/15 10:36:04;;;;;;;693.33;201.52;;;4.60;99.90;;;;;;10326036;28;20086;-91
2021/12/15 10:41:11;;;;;;;552.80;168.93;;;4.60;99.90;;;;;;10327081;28;20057;-90
2021/12/15 10:46:20;;;;;;;568.17;167.33;;;4.60;99.90;;;;;;10325127;28;20037;-90
2021/12/15 10:51:26;;;;;;;631.20;171.77;;;4.60;99.90;;;;;;10326641;28;20737;-90
2021/12/15 10:56:30;;;;;;;553.90;148.63;;;4.60;99.90;;;;;;10326915;28;20470;-91
2021/12/15 11:01:40;;;;;;;520.47;159.13;;;4.60;99.90;;;;;;10325020;28;20022;-91
2021/12/15 11:06:41;;;;;;;611.93;165.23;;;4.60;99.90;;;;;;10325888;28;20501;-91
2021/12/15 11:12:03;;;;;;;602.10;185.53;;;4.70;99.90;;;;;;10325223;28;20026;-90
2021/12/15 11:17:20;;;;;;;567.27;166.93;;;4.70;99.90;;;;;;10329913;28;20378;-91
2021/12/15 11:22:41;;;;;;;787.57;223.87;;;4.60;99.90;;;;;;10332605;28;20730;-92
2021/12/15 11:27:42;;;;;;;712.70;213.47;;;4.70;99.90;;;;;;10333324;28;20057;-89
2021/12/15 11:32:47;;;;;;;635.17;212.40;;;4.70;99.90;;;;;;10333517;28;20038;-91
2021/12/15 11:37:59;;;;;;;1999.90;849.38;;;4.70;99.90;;;;;;10332850;28;20105;-90
2021/12/15 11:43:00;;;;;;;1123.73;382.10;;;4.70;99.90;;;;;;10333195;28;20034;-91
2021/12/15 11:48:24;;;;;;;1031.50;326.73;;;4.80;99.90;;;;;;10332638;28;20033;-91
2021/12/15 11:53:41;;;;;;;931.17;303.43;;;4.80;99.90;;;;;;10331851;28;20034;-92
2021/12/15 11:58:42;;;;;;;963.10;281.27;;;4.80;99.90;;;;;;10331130;28;20037;-92
2021/12/15 12:04:12;;;;;;;904.13;271.13;;;4.90;99.90;;;;;;10330998;28;20540;-91
2021/12/15 12:09:15;;;;;;;1001.00;316.30;;;4.90;99.90;;;;;;10330493;28;20046;-91
2021/12/15 12:14:28;;;;;;;1156.40;354.33;;;4.90;99.90;;;;;;10330666;28;20068;-91
2021/12/15 12:19:29;;;;;;;1440.07;417.20;;;4.90;99.90;;;;;;10330620;28;20173;-90
2021/12/15 12:24:33;;;;;;;1260.57;337.80;;;4.90;99.90;;;;;;10330343;28;20092;-90
2021/12/15 12:29:35;;;;;;;1147.13;347.17;;;4.90;99.90;;;;;;10329471;28;20100;-91
2021/12/15 12:34:35;;;;;;;1167.63;308.33;;;4.90;99.90;;;;;;10331534;28;20037;-90
2021/12/15 12:39:39;;;;;;;950.47;282.83;;;4.90;99.90;;;;;;10330774;28;20030;-91
2021/12/15 12:44:48;;;;;;;1055.20;325.33;;;4.80;99.90;;;;;;10328939;28;20552;-91
2021/12/15 12:50:30;;;;;;;1196.97;359.43;;;4.90;99.90;;;;;;10329658;28;20394;-91
2021/12/15 13:01:01;;;;;;;959.00;294.73;;;4.80;99.90;;;;;;10330334;28;20093;-91
2021/12/15 13:06:39;;;;;;;816.10;235.23;;;4.80;99.90;;;;;;10329742;28;20050;-90
2021/12/15 13:11:41;;;;;;;912.87;294.60;;;4.80;99.90;;;;;;10309606;28;20035;-90
2021/12/15 13:16:56;;;;;;;1096.97;328.50;;;4.80;99.90;;;;;;10312016;28;20025;-89
2021/12/15 13:32:38;;;;;;;1890.57;523.80;;;4.90;99.90;;;;;;10350478;28;20033;-89
2021/12/15 13:38:02;;;;;;;1262.33;392.77;;;4.90;99.90;;;;;;10360430;28;20018;-90
2021/12/15 13:43:03;;;;;;;1359.73;438.90;;;4.90;99.90;;;;;;10367306;28;20053;-89
2021/12/15 13:48:06;;;;;;;892.13;279.07;;;4.90;99.90;;;;;;10367588;28;20168;-90
2021/12/15 13:53:06;;;;;;;880.57;253.77;;;4.90;99.90;;;;;;10350352;28;20373;-90
2021/12/15 13:58:10;;;;;;;944.10;294.47;;;4.90;99.90;;;;;;10350600;28;20037;-89
2021/12/15 14:03:27;;;;;;;836.90;269.13;;;4.90;99.90;;;;;;10368679;28;20062;-90
2021/12/15 14:08:29;;;;;;;889.47;311.57;;;4.90;99.90;;;;;;10368643;28;20112;-89
2021/12/15 14:13:47;;;;;;;723.97;232.67;;;4.90;99.90;;;;;;10368426;28;20389;-89
2021/12/15 14:18:48;;;;;;;832.47;294.43;;;4.90;99.90;;;;;;10361232;28;20041;-89
2021/12/15 14:23:50;;;;;;;797.03;262.03;;;4.90;99.90;;;;;;10325946;28;20041;-90
2021/12/15 14:28:56;;;;;;;749.57;241.30;;;4.90;99.90;;;;;;10327071;28;20030;-91
2021/12/15 14:34:07;;;;;;;653.90;221.50;;;4.90;99.90;;;;;;10317031;28;20172;-91
2021/12/15 14:39:12;;;;;;;646.30;200.50;;;4.90;99.90;;;;;;10312197;28;20038;-90
2021/12/15 14:44:22;;;;;;;765.53;238.47;;;4.90;99.90;;;;;;10336106;28;20457;-89
2021/12/15 14:49:27;;;;;;;954.23;245.33;;;4.90;99.90;;;;;;10326991;28;20030;-89
2021/12/15 14:54:29;;;;;;;754.73;212.53;;;4.90;99.90;;;;;;10335238;28;20466;-91
2021/12/15 14:59:34;;;;;;;882.83;262.77;;;4.90;99.90;;;;;;10334710;28;20277;-90
2021/12/15 15:04:38;;;;;;;1047.90;277.43;;;4.80;99.90;;;;;;10334110;28;20374;-89
2021/12/15 15:09:42;;;;;;;1137.57;321.87;;;4.80;99.90;;;;;;10334214;28;20450;-89
2021/12/15 15:15:00;;;;;;;1136.93;291.53;;;4.80;99.90;;;;;;10333626;28;20049;-91
2021/12/15 15:20:14;;;;;;;1229.03;350.77;;;4.80;99.90;;;;;;10354673;28;20441;-90
2021/12/15 15:25:22;;;;;;;1332.87;380.67;;;4.80;99.90;;;;;;10374386;28;20069;-88
2021/12/15 15:30:43;;;;;;;627.03;209.10;;;4.80;99.90;;;;;;10381506;28;20032;-93
2021/12/15 15:35:53;;;;;;;910.33;262.77;;;4.90;99.90;;;;;;10410833;28;20026;-89
2021/12/15 15:41:00;;;;;;;640.47;191.13;;;4.80;99.90;;;;;;10333146;28;20082;-90
2021/12/15 15:46:09;;;;;;;795.77;209.37;;;4.80;99.90;;;;;;10357388;28;20102;-91
2021/12/15 15:51:36;;;;;;;877.47;237.53;;;4.90;99.90;;;;;;10359015;28;20060;-92
2021/12/15 15:56:41;;;;;;;862.07;226.47;;;4.80;99.90;;;;;;10357942;28;20014;-91
2021/12/15 16:02:15;;;;;;;;;;;;;;;;;;;;;
2021/12/15 16:07:19;;;;;;;1062.10;292.27;;;4.80;99.90;;;;;;10374739;28;20050;-90
2021/12/15 16:12:21;;;;;;;707.83;227.33;;;4.90;99.90;;;;;;10370973;28;20021;-90
2021/12/15 16:17:38;;;;;;;659.67;198.70;;;4.80;99.90;;;;;;10354707;28;20013;-88
2021/12/15 16:22:54;;;;;;;585.37;219.57;;;4.80;99.90;;;;;;10390989;28;20403;-88
2021/12/15 16:27:55;;;;;;;581.73;190.50;;;4.90;99.90;;;;;;10359898;28;20558;-89
2021/12/15 16:32:58;;;;;;;498.30;169.80;;;4.90;99.90;;;;;;10370855;28;20109;-91
2021/12/15 16:38:43;;;;;;;966.23;312.33;;;5.00;99.90;;;;;;10357064;28;20120;-91
2021/12/15 16:43:50;;;;;;;1067.93;370.70;;;5.00;99.90;;;;;;10301704;28;20370;-89
2021/12/15 16:48:54;;;;;;;957.67;315.80;;;5.00;99.90;;;;;;10360791;28;20108;-89
2021/12/15 16:54:06;;;;;;;980.33;317.73;;;5.00;99.90;;;;;;10355479;28;20497;-87
2021/12/15 16:59:33;;;;;;;849.63;333.33;;;5.00;99.90;;;;;;10368208;28;20117;-86
2021/12/15 17:04:39;;;;;;;819.20;317.93;;;5.00;99.90;;;;;;10367848;28;20038;-87
2021/12/15 17:09:45;;;;;;;723.87;295.07;;;5.00;99.90;;;;;;10329330;28;20023;-87
2021/12/15 17:14:51;;;;;;;770.55;301.63;;;5.00;99.90;;;;;;10364355;28;20033;-88
2021/12/15 17:19:54;;;;;;;1188.97;506.25;;;5.00;99.90;;;;;;10368565;28;20036;-87
2021/12/15 17:24:54;;;;;;;710.97;280.37;;;5.00;99.90;;;;;;10351319;28;20038;-89
2021/12/15 17:29:57;;;;;;;567.73;221.07;;;5.10;99.90;;;;;;10350836;28;20022;-87
2021/12/15 17:34:58;;;;;;;646.33;248.87;;;5.10;99.90;;;;;;10368397;28;20022;-87
2021/12/15 17:40:00;;;;;;;636.90;230.63;;;5.20;99.90;;;;;;10367614;28;20372;-87
2021/12/15 17:45:15;;;;;;;524.30;175.67;;;5.20;99.90;;;;;;10371395;28;20129;-88
2021/12/15 17:50:26;;;;;;;616.50;222.27;;;5.20;99.90;;;;;;10353141;28;20030;-89
2021/12/15 17:55:32;;;;;;;518.93;165.83;;;5.20;99.90;;;;;;10367759;28;20109;-88
2021/12/15 18:00:48;;;;;;;625.47;202.10;;;5.20;99.90;;;;;;10336575;28;20017;-89
2021/12/15 18:06:03;;;;;;;427.60;164.20;;;5.20;99.90;;;;;;10349967;28;20042;-89
2021/12/15 18:11:20;;;;;;;493.93;161.63;;;5.20;99.90;;;;;;10348204;28;20030;-91
2021/12/15 18:16:21;;;;;;;501.17;186.73;;;5.20;99.90;;;;;;10368820;28;20029;-87
2021/12/15 18:21:30;;;;;;;488.27;182.97;;;5.20;99.90;;;;;;10365209;28;20026;-89
2021/12/15 18:26:32;;;;;;;578.97;199.37;;;5.30;99.90;;;;;;10369239;28;20113;-88
2021/12/15 18:31:42;;;;;;;540.33;203.73;;;5.30;99.90;;;;;;10371913;28;20072;-91
2021/12/15 18:36:47;;;;;;;436.30;168.93;;;5.30;99.90;;;;;;10358316;28;20053;-88
2021/12/15 18:41:57;;;;;;;484.50;205.00;;;5.30;99.90;;;;;;10369961;28;20026;-89
2021/12/15 18:47:08;;;;;;;526.93;231.90;;;5.30;99.90;;;;;;10370288;28;20018;-90
2021/12/15 18:52:25;;;;;;;392.33;145.90;;;5.30;99.90;;;;;;10369722;28;20374;-92
2021/12/15 18:57:32;;;;;;;478.53;228.07;;;5.30;99.90;;;;;;10369173;28;20026;-91
2021/12/15 19:02:36;;;;;;;503.57;211.80;;;5.30;99.90;;;;;;10351861;28;20452;-88
2021/12/15 19:07:39;;;;;;;449.77;215.60;;;5.30;99.90;;;;;;10377285;28;20061;-86
2021/12/15 19:12:48;;;;;;;410.03;179.63;;;5.30;99.90;;;;;;10350767;28;20092;-88
2021/12/15 19:17:52;;;;;;;452.30;187.37;;;5.30;99.90;;;;;;10365938;28;20030;-91
2021/12/15 19:22:53;;;;;;;440.60;194.13;;;5.30;99.90;;;;;;10374386;28;20045;-88
2021/12/15 19:27:54;;;;;;;500.53;217.07;;;5.30;99.90;;;;;;10365844;28;20096;-91
2021/12/15 19:32:55;;;;;;;478.40;218.57;;;5.30;99.90;;;;;;10378501;28;20425;-89
2021/12/15 19:37:56;;;;;;;487.43;211.37;;;5.40;99.90;;;;;;10368292;28;20025;-89
2021/12/15 19:42:57;;;;;;;439.07;186.60;;;5.40;99.90;;;;;;10355321;28;20029;-89
2021/12/15 19:47:58;;;;;;;498.20;206.93;;;5.40;99.90;;;;;;10354906;28;20081;-88
2021/12/15 19:53:02;;;;;;;461.70;199.77;;;5.30;99.90;;;;;;10371169;28;20509;-88
2021/12/15 19:58:07;;;;;;;558.77;237.63;;;5.40;99.90;;;;;;10348048;28;20112;-89
2021/12/15 20:09:29;;;;;;;508.97;209.97;;;5.40;99.90;;;;;;10315099;28;20074;-87
2021/12/15 20:21:08;;;;;;;;;;;5.40;99.90;;;;;;10358954;28;20019;-89
2021/12/15 20:32:46;;;;;;;575.43;274.90;;;5.40;99.90;;;;;;10367732;28;20116;-88
2021/12/15 20:37:50;;;;;;;525.67;249.00;;;5.40;99.90;;;;;;10343043;28;20448;-89
2021/12/15 20:49:07;;;;;;;560.90;250.50;;;5.40;99.90;;;;;;10195105;29;20387;-89
2021/12/15 20:54:10;;;;;;;600.50;259.13;;;5.40;99.90;;;;;;10167636;29;20036;-90
2021/12/15 20:59:18;;;;;;;629.70;276.20;;;5.40;99.90;;;;;;10202388;29;20448;-87
2021/12/15 21:04:19;;;;;;;624.23;267.87;;;5.40;99.90;;;;;;10171356;29;20036;-88
2021/12/15 21:10:23;;;;;;;585.73;245.97;;;5.40;99.90;;;;;;10260263;28;20055;-89
2021/12/15 21:27:47;;;;;;;972.70;515.90;;;5.40;99.90;;;;;;10323394;28;20755;-86
2021/12/15 21:32:49;;;;;;;636.03;281.20;;;5.40;99.90;;;;;;10320626;28;20034;-86
2021/12/15 21:43:51;;;;;;;637.67;257.17;;;5.40;99.90;;;;;;10326328;28;20093;-87
2021/12/15 21:48:52;;;;;;;683.23;281.10;;;5.40;99.90;;;;;;10307272;28;20112;-87
2021/12/15 21:53:56;;;;;;;691.00;346.37;;;5.40;99.90;;;;;;10308233;28;20113;-86
2021/12/15 21:58:57;;;;;;;614.90;235.33;;;5.40;99.90;;;;;;10325289;28;20034;-89
2021/12/15 22:03:58;;;;;;;703.73;317.00;;;5.40;99.90;;;;;;10322786;28;20034;-88
2021/12/15 22:09:02;;;;;;;716.53;322.80;;;5.40;99.90;;;;;;10326051;28;20038;-89
2021/12/15 22:14:04;;;;;;;703.27;321.13;;;5.40;99.90;;;;;;10324767;28;20038;-88
2021/12/15 22:19:08;;;;;;;834.57;349.83;;;5.40;99.90;;;;;;10304935;28;20042;-90
2021/12/15 22:24:17;;;;;;;733.03;325.80;;;5.40;99.90;;;;;;10307102;28;20600;-87
2021/12/15 22:29:27;;;;;;;631.93;263.20;;;5.40;99.90;;;;;;10301882;28;20089;-87
2021/12/15 22:34:28;;;;;;;689.63;332.03;;;5.40;99.90;;;;;;10298385;28;20030;-88
2021/12/15 22:39:29;;;;;;;640.37;274.57;;;5.40;99.90;;;;;;10304210;28;20477;-88
2021/12/15 22:44:30;;;;;;;570.13;263.47;;;5.40;99.90;;;;;;10286728;28;20034;-88
2021/12/15 22:49:31;;;;;;;654.80;271.30;;;5.40;99.90;;;;;;10305923;28;20509;-88
2021/12/15 22:54:32;;;;;;;541.53;223.97;;;5.50;99.90;;;;;;10292894;28;20034;-87
2021/12/15 22:59:34;;;;;;;549.57;214.37;;;5.50;99.90;;;;;;10307854;28;20044;-89
2021/12/15 23:04:35;;;;;;;665.47;250.20;;;5.50;99.90;;;;;;10325387;28;20066;-87
2021/12/15 23:09:37;;;;;;;604.37;238.17;;;5.40;99.90;;;;;;10308470;28;20110;-89
2021/12/15 23:14:46;;;;;;;559.80;206.40;;;5.50;99.90;;;;;;10321010;28;20030;-87
2021/12/15 23:19:47;;;;;;;596.43;222.67;;;5.40;99.90;;;;;;10310545;28;20054;-87
2021/12/15 23:24:49;;;;;;;517.67;207.40;;;5.50;99.90;;;;;;10332224;28;20119;-89
2021/12/15 23:29:49;;;;;;;502.47;195.10;;;5.50;99.90;;;;;;10314523;28;20648;-89
2021/12/15 23:35:09;;;;;;;502.60;192.10;;;5.40;99.90;;;;;;10281169;28;20031;-88
